createdAt,value
2022-11-13T00:29:35.959Z,1017.5
2022-11-13T00:30:19.216Z,1017.47
2022-11-13T00:30:56.538Z,1017.48
2022-11-13T00:31:37.013Z,1017.48
2022-11-13T00:32:17.489Z,1017.48
2022-11-13T00:32:57.957Z,1017.51
2022-11-13T00:34:02.336Z,1017.45
2022-11-13T00:34:41.392Z,1017.48
2022-11-13T00:34:59.425Z,1017.42
2022-11-13T00:35:39.886Z,1017.44
2022-11-13T00:36:20.313Z,1017.38
2022-11-13T00:37:00.781Z,1017.37
2022-11-13T00:37:41.245Z,1017.35
2022-11-13T00:38:21.707Z,1017.39
2022-11-13T00:39:02.144Z,1017.38
2022-11-13T00:39:42.594Z,1017.39
2022-11-13T00:40:23.057Z,1017.34
2022-11-13T00:41:03.543Z,1017.35
2022-11-13T00:41:44.042Z,1017.35
2022-11-13T00:42:24.545Z,1017.36
2022-11-13T00:43:05.021Z,1017.33
2022-11-13T00:43:45.521Z,1017.35
2022-11-13T00:44:25.989Z,1017.32
2022-11-13T00:45:06.588Z,1017.33
2022-11-13T00:45:47.008Z,1017.31
2022-11-13T00:46:27.470Z,1017.37
2022-11-13T00:47:07.909Z,1017.29
2022-11-13T00:47:48.425Z,1017.33
2022-11-13T00:48:29.185Z,1017.33
2022-11-13T00:49:09.370Z,1017.3
2022-11-13T00:49:49.829Z,1017.32
2022-11-13T00:50:30.249Z,1017.33
2022-11-13T00:51:10.773Z,1017.33
2022-11-13T00:51:51.261Z,1017.34
2022-11-13T00:52:31.760Z,1017.3
2022-11-13T00:53:16.883Z,1017.32
2022-11-13T00:53:52.696Z,1017.26
2022-11-13T00:54:33.203Z,1017.24
2022-11-13T00:55:13.610Z,1017.23
2022-11-13T00:55:54.120Z,1017.24
2022-11-13T00:56:34.596Z,1017.26
2022-11-13T00:57:15.091Z,1017.23
2022-11-13T00:57:55.574Z,1017.22
2022-11-13T00:59:16.460Z,1017.25
2022-11-13T00:59:56.935Z,1017.27
2022-11-13T01:00:37.565Z,1017.24
2022-11-13T01:01:18.574Z,1017.25
2022-11-13T01:01:59.063Z,1017.23
2022-11-13T01:02:39.503Z,1017.22
2022-11-13T01:03:20.014Z,1017.21
2022-11-13T01:04:00.420Z,1017.18
2022-11-13T01:04:40.962Z,1017.2
2022-11-13T01:05:21.399Z,1017.16
2022-11-13T01:06:01.878Z,1017.15
2022-11-13T01:06:42.390Z,1017.17
2022-11-13T01:07:22.813Z,1017.15
2022-11-13T01:08:03.276Z,1017.16
2022-11-13T01:08:43.719Z,1017.17
2022-11-13T01:09:24.201Z,1017.2
2022-11-13T01:10:04.668Z,1017.21
2022-11-13T01:10:47.582Z,1017.2
2022-11-13T01:11:25.599Z,1017.2
2022-11-13T01:12:06.065Z,1017.23
2022-11-13T01:12:46.559Z,1017.2
2022-11-13T01:13:27.051Z,1017.21
2022-11-13T01:14:07.551Z,1017.2
2022-11-13T01:14:48.019Z,1017.21
2022-11-13T01:15:28.493Z,1017.19
2022-11-13T01:16:09.040Z,1017.22
2022-11-13T01:16:49.413Z,1017.17
2022-11-13T01:17:29.906Z,1017.16
2022-11-13T01:18:10.397Z,1017.17
2022-11-13T01:18:50.870Z,1017.15
2022-11-13T01:19:31.339Z,1017.17
2022-11-13T01:20:11.817Z,1017.12
2022-11-13T01:20:52.309Z,1017.13
2022-11-13T01:21:32.794Z,1017.15
2022-11-13T01:22:13.277Z,1017.16
2022-11-13T01:22:53.716Z,1017.12
2022-11-13T01:23:34.221Z,1017.11
2022-11-13T01:24:14.675Z,1017.13
2022-11-13T01:24:55.166Z,1017.11
2022-11-13T01:25:35.622Z,1017.11
2022-11-13T01:26:16.102Z,1017.09
2022-11-13T01:26:56.630Z,1017.09
2022-11-13T01:27:37.052Z,1017.13
2022-11-13T01:28:17.512Z,1017.12
2022-11-13T01:29:38.413Z,1017.07
2022-11-13T01:30:18.900Z,1017.05
2022-11-13T01:30:59.353Z,1017.09
2022-11-13T01:31:39.951Z,1017.08
2022-11-13T01:32:20.333Z,1017.05
2022-11-13T01:33:00.792Z,1017.05
2022-11-13T01:33:41.260Z,1017.05
2022-11-13T01:34:21.767Z,1017.09
2022-11-13T01:35:02.210Z,1017.06
2022-11-13T01:35:42.739Z,1017.04
2022-11-13T01:36:23.181Z,1017.06
2022-11-13T01:37:03.620Z,1017.05
2022-11-13T01:37:44.125Z,1017.06
2022-11-13T01:38:24.741Z,1017.03
2022-11-13T01:39:05.088Z,1017.06
2022-11-13T01:39:45.572Z,1017.01
2022-11-13T01:40:26.061Z,1017.03
2022-11-13T01:41:06.536Z,1016.99
2022-11-13T01:41:47.050Z,1017.03
2022-11-13T01:42:27.495Z,1016.99
2022-11-13T01:43:08.023Z,1016.99
2022-11-13T01:43:48.441Z,1016.95
2022-11-13T01:47:17.580Z,1016.93
2022-11-13T01:47:57.722Z,1016.95
2022-11-13T01:48:38.199Z,1016.95
2022-11-13T01:49:18.686Z,1016.95
2022-11-13T01:52:33.374Z,1016.88
2022-11-13T01:53:13.865Z,1016.87
2022-11-13T01:53:54.318Z,1016.89
2022-11-13T01:54:34.809Z,1016.87
2022-11-13T01:55:15.270Z,1016.89
2022-11-13T01:55:55.734Z,1016.83
2022-11-13T01:56:36.194Z,1016.86
2022-11-13T01:57:16.672Z,1016.83
2022-11-13T01:57:57.149Z,1016.85
2022-11-13T01:58:37.622Z,1016.85
2022-11-13T01:59:18.111Z,1016.8
2022-11-13T01:59:58.600Z,1016.79
2022-11-13T02:00:39.108Z,1016.78
2022-11-13T02:01:19.616Z,1016.76
2022-11-13T02:02:00.102Z,1016.75
2022-11-13T02:02:40.662Z,1016.77
2022-11-13T02:03:21.057Z,1016.71
2022-11-13T02:04:01.488Z,1016.73
2022-11-13T02:04:41.969Z,1016.74
2022-11-13T02:05:22.414Z,1016.75
2022-11-13T02:06:02.883Z,1016.73
2022-11-13T02:06:43.469Z,1016.75
2022-11-13T02:07:23.919Z,1016.71
2022-11-13T02:08:04.302Z,1016.67
2022-11-13T02:08:44.814Z,1016.68
2022-11-13T02:09:25.239Z,1016.67
2022-11-13T02:10:05.734Z,1016.66
2022-11-13T02:10:46.189Z,1016.68
2022-11-13T02:11:26.656Z,1016.64
2022-11-13T02:12:07.121Z,1016.64
2022-11-13T02:12:47.607Z,1016.61
2022-11-13T02:15:15.448Z,1016.61
2022-11-13T02:15:55.953Z,1016.59
2022-11-13T02:16:36.507Z,1016.62
2022-11-13T02:17:16.985Z,1016.57
2022-11-13T02:17:57.579Z,1016.6
2022-11-13T02:18:37.946Z,1016.57
2022-11-13T02:19:18.396Z,1016.6
2022-11-13T02:19:58.887Z,1016.6
2022-11-13T02:20:39.339Z,1016.57
2022-11-13T02:21:19.873Z,1016.57
2022-11-13T02:22:00.374Z,1016.57
2022-11-13T02:22:40.870Z,1016.57
2022-11-13T02:23:21.385Z,1016.53
2022-11-13T02:24:01.852Z,1016.54
2022-11-13T02:24:45.214Z,1016.48
2022-11-13T02:25:22.801Z,1016.51
2022-11-13T02:26:03.301Z,1016.48
2022-11-13T02:26:43.815Z,1016.48
2022-11-13T02:27:24.287Z,1016.46
2022-11-13T02:28:04.743Z,1016.4
2022-11-13T02:28:45.234Z,1016.39
2022-11-13T02:29:25.763Z,1016.42
2022-11-13T02:30:07.521Z,1016.4
2022-11-13T02:30:46.789Z,1016.4
2022-11-13T02:31:27.298Z,1016.37
2022-11-13T02:32:07.761Z,1016.35
2022-11-13T02:32:48.290Z,1016.36
2022-11-13T02:33:28.868Z,1016.34
2022-11-13T02:34:09.227Z,1016.34
2022-11-13T02:34:49.725Z,1016.35
2022-11-13T02:35:30.182Z,1016.33
2022-11-13T02:36:10.661Z,1016.33
2022-11-13T02:36:51.171Z,1016.31
2022-11-13T02:37:31.669Z,1016.34
2022-11-13T02:38:12.127Z,1016.36
2022-11-13T02:38:52.641Z,1016.38
2022-11-13T02:39:33.108Z,1016.39
2022-11-13T02:40:13.660Z,1016.35
2022-11-13T02:40:54.128Z,1016.36
2022-11-13T02:41:34.655Z,1016.35
2022-11-13T02:42:15.084Z,1016.34
2022-11-13T02:42:55.599Z,1016.34
2022-11-13T02:44:16.543Z,1016.39
2022-11-13T02:44:57.025Z,1016.4
2022-11-13T02:45:37.501Z,1016.34
2022-11-13T02:46:17.988Z,1016.39
2022-11-13T02:46:58.525Z,1016.38
2022-11-13T02:47:38.961Z,1016.36
2022-11-13T02:48:19.459Z,1016.35
2022-11-13T02:49:00.130Z,1016.34
2022-11-13T02:49:40.506Z,1016.33
2022-11-13T02:50:20.983Z,1016.32
2022-11-13T02:51:01.483Z,1016.31
2022-11-13T02:51:41.884Z,1016.31
2022-11-13T02:52:22.516Z,1016.3
2022-11-13T02:53:02.872Z,1016.26
2022-11-13T02:53:43.351Z,1016.25
2022-11-13T02:54:23.804Z,1016.23
2022-11-13T02:55:04.315Z,1016.21
2022-11-13T02:55:44.752Z,1016.2
2022-11-13T02:56:25.264Z,1016.18
2022-11-13T02:57:05.702Z,1016.16
2022-11-13T02:57:46.148Z,1016.21
2022-11-13T02:58:26.971Z,1016.19
2022-11-13T02:59:07.137Z,1016.21
2022-11-13T02:59:47.682Z,1016.21
2022-11-13T03:00:28.175Z,1016.2
2022-11-13T03:01:49.120Z,1016.19
2022-11-13T03:02:29.589Z,1016.18
2022-11-13T03:03:10.111Z,1016.21
2022-11-13T03:03:58.378Z,1016.21
2022-11-13T03:04:44.182Z,1016.19
2022-11-13T03:05:13.171Z,1016.19
2022-11-13T03:05:51.964Z,1016.14
2022-11-13T03:06:32.480Z,1016.17
2022-11-13T03:07:13.014Z,1016.18
2022-11-13T03:07:53.427Z,1016.16
2022-11-13T03:08:34.846Z,1016.16
2022-11-13T03:09:14.403Z,1016.14
2022-11-13T03:09:54.865Z,1016.17
2022-11-13T03:10:35.321Z,1016.13
2022-11-13T03:11:15.839Z,1016.16
2022-11-13T03:11:56.317Z,1016.14
2022-11-13T03:12:36.771Z,1016.14
2022-11-13T03:13:17.254Z,1016.16
2022-11-13T03:13:57.722Z,1016.11
2022-11-13T03:14:38.215Z,1016.11
2022-11-13T03:15:18.699Z,1016.12
2022-11-13T03:15:59.159Z,1016.1
2022-11-13T03:16:39.622Z,1016.1
2022-11-13T03:17:20.133Z,1016.08
2022-11-13T03:18:00.675Z,1016.1
2022-11-13T03:18:41.148Z,1016.05
2022-11-13T03:19:21.650Z,1016.08
2022-11-13T03:20:02.226Z,1016.08
2022-11-13T03:20:42.625Z,1016.09
2022-11-13T03:21:23.180Z,1016.06
2022-11-13T03:22:03.639Z,1016.06
2022-11-13T03:22:44.128Z,1016.06
2022-11-13T03:23:24.589Z,1016.07
2022-11-13T03:24:45.579Z,1016.07
2022-11-13T03:25:26.032Z,1016.07
2022-11-13T03:26:06.576Z,1016.05
2022-11-13T03:26:47.022Z,1016.05
2022-11-13T03:27:27.491Z,1016.04
2022-11-13T03:28:07.989Z,1016.03
2022-11-13T03:28:48.491Z,1016.03
2022-11-13T03:29:28.937Z,1016.03
2022-11-13T03:30:09.429Z,1016.02
2022-11-13T03:30:49.888Z,1016.05
2022-11-13T03:31:30.377Z,1016.03
2022-11-13T03:32:10.853Z,1016.03
2022-11-13T03:32:51.370Z,1016.04
2022-11-13T03:34:49.762Z,1016.08
2022-11-13T03:35:31.877Z,1016.09
2022-11-13T03:36:10.359Z,1016.06
2022-11-13T03:36:50.852Z,1016.07
2022-11-13T03:37:31.325Z,1016.08
2022-11-13T03:38:11.793Z,1016.12
2022-11-13T03:39:32.821Z,1016.1
2022-11-13T03:40:13.274Z,1016.12
2022-11-13T03:40:53.717Z,1016.09
2022-11-13T03:41:34.192Z,1016.11
2022-11-13T03:42:14.703Z,1016.1
2022-11-13T03:42:55.193Z,1016.12
2022-11-13T03:43:35.581Z,1016.12
2022-11-13T03:44:16.053Z,1016.12
2022-11-13T03:44:56.527Z,1016.13
2022-11-13T03:45:37.012Z,1016.11
2022-11-13T03:46:17.450Z,1016.15
2022-11-13T03:46:57.897Z,1016.13
2022-11-13T03:47:38.420Z,1016.07
2022-11-13T03:48:18.947Z,1016.08
2022-11-13T03:48:59.431Z,1016.04
2022-11-13T03:49:39.875Z,1016.03
2022-11-13T03:50:20.393Z,1016.05
2022-11-13T03:51:00.914Z,1016
2022-11-13T03:51:41.384Z,1016
2022-11-13T03:52:21.772Z,1016.02
2022-11-13T03:53:02.350Z,1015.99
2022-11-13T03:53:42.743Z,1016.01
2022-11-13T03:54:23.232Z,1016.01
2022-11-13T03:55:03.683Z,1015.99
2022-11-13T03:55:44.153Z,1015.99
2022-11-13T03:56:24.674Z,1016.02
2022-11-13T03:57:05.099Z,1016.02
2022-11-13T03:57:45.573Z,1016.02
2022-11-13T03:58:26.401Z,1016.01
2022-11-13T03:59:06.585Z,1016.01
2022-11-13T03:59:47.083Z,1016.02
2022-11-13T04:00:27.497Z,1016
2022-11-13T04:01:08.012Z,1016.03
2022-11-13T04:01:48.562Z,1015.95
2022-11-13T04:02:28.927Z,1015.94
2022-11-13T04:03:09.394Z,1015.91
2022-11-13T04:03:49.893Z,1015.93
2022-11-13T04:04:30.395Z,1015.91
2022-11-13T04:05:10.851Z,1015.89
2022-11-13T04:05:51.350Z,1015.88
2022-11-13T04:07:12.338Z,1015.9
2022-11-13T04:07:52.694Z,1015.91
2022-11-13T04:08:33.229Z,1015.91
2022-11-13T04:09:13.740Z,1015.93
2022-11-13T04:09:54.172Z,1015.92
2022-11-13T04:10:34.580Z,1015.93
2022-11-13T04:11:15.053Z,1015.94
2022-11-13T04:11:55.575Z,1015.97
2022-11-13T04:12:35.992Z,1015.96
2022-11-13T04:13:16.471Z,1015.96
2022-11-13T04:13:57.010Z,1015.94
2022-11-13T04:14:37.490Z,1015.92
2022-11-13T04:15:17.933Z,1015.95
2022-11-13T04:15:58.410Z,1015.92
2022-11-13T04:16:38.912Z,1015.93
2022-11-13T04:17:19.480Z,1015.94
2022-11-13T04:17:59.958Z,1015.91
2022-11-13T04:18:40.434Z,1015.9
2022-11-13T04:19:20.884Z,1015.88
2022-11-13T04:20:01.392Z,1015.87
2022-11-13T04:20:41.842Z,1015.85
2022-11-13T04:22:02.841Z,1015.85
2022-11-13T04:22:43.204Z,1015.84
2022-11-13T04:23:23.708Z,1015.83
2022-11-13T04:24:04.174Z,1015.81
2022-11-13T04:24:44.691Z,1015.84
2022-11-13T04:25:25.155Z,1015.82
2022-11-13T04:26:05.675Z,1015.8
2022-11-13T04:26:46.076Z,1015.8
2022-11-13T04:27:26.597Z,1015.8
2022-11-13T04:28:07.028Z,1015.8
2022-11-13T04:28:47.524Z,1015.78
2022-11-13T04:29:28.006Z,1015.77
2022-11-13T04:30:08.505Z,1015.78
2022-11-13T04:30:49.061Z,1015.78
2022-11-13T04:31:29.552Z,1015.76
2022-11-13T04:32:10.049Z,1015.77
2022-11-13T04:32:50.496Z,1015.75
2022-11-13T04:33:30.977Z,1015.75
2022-11-13T04:34:11.496Z,1015.75
2022-11-13T04:34:51.952Z,1015.73
2022-11-13T04:35:32.421Z,1015.72
2022-11-13T04:36:12.936Z,1015.7
2022-11-13T04:36:53.403Z,1015.69
2022-11-13T04:37:34.047Z,1015.67
2022-11-13T04:38:15.939Z,1015.7
2022-11-13T04:38:56.413Z,1015.73
2022-11-13T04:39:36.912Z,1015.67
2022-11-13T04:40:17.380Z,1015.67
2022-11-13T04:40:57.834Z,1015.68
2022-11-13T04:41:38.348Z,1015.64
2022-11-13T04:42:18.810Z,1015.65
2022-11-13T04:42:59.301Z,1015.64
2022-11-13T04:43:39.775Z,1015.64
2022-11-13T04:44:20.253Z,1015.6
2022-11-13T04:45:00.769Z,1015.56
2022-11-13T04:45:41.186Z,1015.55
2022-11-13T04:46:21.711Z,1015.53
2022-11-13T04:47:02.159Z,1015.53
2022-11-13T04:47:42.604Z,1015.49
2022-11-13T04:48:23.076Z,1015.5
2022-11-13T04:49:03.590Z,1015.44
2022-11-13T04:49:44.067Z,1015.47
2022-11-13T04:50:24.586Z,1015.44
2022-11-13T04:51:05.039Z,1015.46
2022-11-13T04:51:45.529Z,1015.49
2022-11-13T04:52:25.988Z,1015.44
2022-11-13T04:53:06.588Z,1015.47
2022-11-13T04:53:46.976Z,1015.43
2022-11-13T04:54:28.842Z,1015.48
2022-11-13T04:55:07.934Z,1015.48
2022-11-13T04:55:48.406Z,1015.47
2022-11-13T04:56:28.864Z,1015.45
2022-11-13T04:57:09.376Z,1015.42
2022-11-13T04:57:49.862Z,1015.44
2022-11-13T04:58:30.591Z,1015.46
2022-11-13T04:59:10.836Z,1015.45
2022-11-13T04:59:51.343Z,1015.46
2022-11-13T05:00:31.846Z,1015.44
2022-11-13T05:01:12.314Z,1015.48
2022-11-13T05:01:52.885Z,1015.49
2022-11-13T05:02:33.295Z,1015.44
2022-11-13T05:03:13.801Z,1015.43
2022-11-13T05:03:54.244Z,1015.45
2022-11-13T05:04:34.758Z,1015.45
2022-11-13T05:05:15.250Z,1015.41
2022-11-13T05:05:55.750Z,1015.42
2022-11-13T05:06:36.311Z,1015.4
2022-11-13T05:07:16.666Z,1015.4
2022-11-13T05:07:57.093Z,1015.4
2022-11-13T05:08:37.733Z,1015.41
2022-11-13T05:09:18.028Z,1015.41
2022-11-13T05:10:39.398Z,1015.36
2022-11-13T05:11:19.845Z,1015.37
2022-11-13T05:12:00.379Z,1015.28
2022-11-13T05:12:41.054Z,1015.33
2022-11-13T05:13:21.524Z,1015.33
2022-11-13T05:14:03.537Z,1015.35
2022-11-13T05:14:42.470Z,1015.31
2022-11-13T05:15:22.985Z,1015.31
2022-11-13T05:16:03.571Z,1015.3
2022-11-13T05:16:44.027Z,1015.32
2022-11-13T05:17:24.485Z,1015.32
2022-11-13T05:18:05.015Z,1015.32
2022-11-13T05:18:45.505Z,1015.33
2022-11-13T05:19:25.999Z,1015.32
2022-11-13T05:20:06.451Z,1015.28
2022-11-13T05:22:19.135Z,1015.29
2022-11-13T05:22:59.597Z,1015.25
2022-11-13T05:23:40.218Z,1015.26
2022-11-13T05:24:20.613Z,1015.24
2022-11-13T05:25:01.050Z,1015.23
2022-11-13T05:25:41.519Z,1015.21
2022-11-13T05:26:21.979Z,1015.17
2022-11-13T05:27:02.438Z,1015.25
2022-11-13T05:27:42.965Z,1015.27
2022-11-13T05:28:23.487Z,1015.2
2022-11-13T05:29:03.931Z,1015.19
2022-11-13T05:29:44.423Z,1015.19
2022-11-13T05:30:24.846Z,1015.22
2022-11-13T05:31:05.385Z,1015.2
2022-11-13T05:31:45.874Z,1015.22
2022-11-13T05:32:26.357Z,1015.19
2022-11-13T05:33:06.847Z,1015.19
2022-11-13T05:33:47.308Z,1015.17
2022-11-13T05:34:27.831Z,1015.23
2022-11-13T05:35:08.318Z,1015.21
2022-11-13T05:35:48.814Z,1015.17
2022-11-13T05:36:29.273Z,1015.17
2022-11-13T05:37:09.754Z,1015.16
2022-11-13T05:37:50.237Z,1015.15
2022-11-13T05:38:31.073Z,1015.13
2022-11-13T05:39:11.313Z,1015.16
2022-11-13T05:39:51.648Z,1015.13
2022-11-13T05:40:32.113Z,1015.15
2022-11-13T05:41:12.593Z,1015.13
2022-11-13T05:41:53.119Z,1015.15
2022-11-13T05:42:33.648Z,1015.14
2022-11-13T05:43:14.164Z,1015.15
2022-11-13T05:43:59.113Z,1015.14
2022-11-13T05:44:35.120Z,1015.15
2022-11-13T05:45:15.635Z,1015.16
2022-11-13T05:45:56.104Z,1015.16
2022-11-13T05:46:36.620Z,1015.08
2022-11-13T05:47:17.084Z,1015.14
2022-11-13T05:47:57.510Z,1015.15
2022-11-13T05:48:38.013Z,1015.13
2022-11-13T05:49:18.490Z,1015.14
2022-11-13T05:49:58.983Z,1015.1
2022-11-13T05:50:39.481Z,1015.11
2022-11-13T05:51:19.911Z,1015.09
2022-11-13T05:52:00.424Z,1015.08
2022-11-13T05:52:40.887Z,1015.11
2022-11-13T06:31:23.894Z,1014.5
2022-11-13T06:32:04.240Z,1014.53
2022-11-13T06:32:44.781Z,1014.52
2022-11-13T06:33:25.206Z,1014.51
2022-11-13T06:34:05.697Z,1014.46
2022-11-13T06:34:46.179Z,1014.52
2022-11-13T06:35:26.675Z,1014.48
2022-11-13T06:36:07.151Z,1014.48
2022-11-13T06:36:47.588Z,1014.48
2022-11-13T06:37:30.490Z,1014.48
2022-11-13T06:38:08.593Z,1014.5
2022-11-13T06:38:49.154Z,1014.47
2022-11-13T06:39:29.591Z,1014.52
2022-11-13T06:40:10.106Z,1014.49
2022-11-13T06:40:50.568Z,1014.5
2022-11-13T06:41:31.012Z,1014.51
2022-11-13T06:42:11.489Z,1014.47
2022-11-13T06:42:51.978Z,1014.5
2022-11-13T06:43:32.455Z,1014.48
2022-11-13T06:44:12.924Z,1014.47
2022-11-13T06:44:53.401Z,1014.47
2022-11-13T06:45:33.868Z,1014.49
2022-11-13T06:46:14.382Z,1014.45
2022-11-13T06:46:54.945Z,1014.48
2022-11-13T06:47:35.305Z,1014.51
2022-11-13T06:48:15.785Z,1014.5
2022-11-13T06:48:56.243Z,1014.48
2022-11-13T06:49:36.728Z,1014.46
2022-11-13T06:50:17.212Z,1014.47
2022-11-13T06:50:57.692Z,1014.5
2022-11-13T06:51:38.204Z,1014.52
2022-11-13T06:52:18.663Z,1014.54
2022-11-13T06:52:59.153Z,1014.51
2022-11-13T06:53:39.671Z,1014.55
2022-11-13T06:54:20.158Z,1014.56
2022-11-13T06:55:00.634Z,1014.54
2022-11-13T06:55:41.107Z,1014.55
2022-11-13T06:56:21.574Z,1014.54
2022-11-13T06:57:02.103Z,1014.55
2022-11-13T06:57:42.590Z,1014.56
2022-11-13T06:58:23.063Z,1014.57
2022-11-13T06:59:07.679Z,1014.56
2022-11-13T06:59:44.019Z,1014.57
2022-11-13T07:00:24.579Z,1014.59
2022-11-13T07:01:05.069Z,1014.58
2022-11-13T07:01:45.513Z,1014.57
2022-11-13T07:02:26.106Z,1014.63
2022-11-13T07:03:06.552Z,1014.59
2022-11-13T07:03:47.010Z,1014.64
2022-11-13T07:04:27.496Z,1014.64
2022-11-13T07:05:07.995Z,1014.61
2022-11-13T07:05:48.461Z,1014.61
2022-11-13T07:06:28.997Z,1014.54
2022-11-13T07:07:09.480Z,1014.56
2022-11-13T07:07:49.942Z,1014.6
2022-11-13T07:08:30.781Z,1014.6
2022-11-13T07:09:11.868Z,1014.59
2022-11-13T07:09:51.483Z,1014.63
2022-11-13T07:10:31.958Z,1014.65
2022-11-13T07:11:12.482Z,1014.59
2022-11-13T07:11:52.992Z,1014.62
2022-11-13T07:12:33.526Z,1014.64
2022-11-13T07:13:13.981Z,1014.63
2022-11-13T07:13:54.438Z,1014.64
2022-11-13T07:14:34.958Z,1014.68
2022-11-13T07:15:15.423Z,1014.67
2022-11-13T07:15:55.915Z,1014.67
2022-11-13T07:16:56.552Z,1014.66
2022-11-13T07:17:17.023Z,1014.7
2022-11-13T07:17:57.655Z,1014.74
2022-11-13T07:18:38.010Z,1014.68
2022-11-13T07:19:18.538Z,1014.71
2022-11-13T07:19:58.988Z,1014.69
2022-11-13T07:20:39.429Z,1014.72
2022-11-13T07:21:19.923Z,1014.7
2022-11-13T07:22:00.434Z,1014.73
2022-11-13T07:24:58.943Z,1014.71
2022-11-13T07:25:39.411Z,1014.66
2022-11-13T07:26:19.863Z,1014.68
2022-11-13T07:27:00.348Z,1014.67
2022-11-13T07:27:40.839Z,1014.68
2022-11-13T07:28:21.367Z,1014.65
2022-11-13T07:29:01.882Z,1014.65
2022-11-13T07:29:42.349Z,1014.65
2022-11-13T07:30:22.809Z,1014.7
2022-11-13T07:31:03.263Z,1014.63
2022-11-13T07:31:43.747Z,1014.67
2022-11-13T07:32:24.252Z,1014.61
2022-11-13T07:33:04.834Z,1014.64
2022-11-13T07:33:45.245Z,1014.63
2022-11-13T07:34:25.744Z,1014.6
2022-11-13T07:35:06.240Z,1014.62
2022-11-13T07:35:46.687Z,1014.64
2022-11-13T07:36:27.140Z,1014.62
2022-11-13T07:37:07.696Z,1014.59
2022-11-13T07:37:48.148Z,1014.59
2022-11-13T07:38:28.945Z,1014.59
2022-11-13T07:39:09.056Z,1014.59
2022-11-13T07:39:49.528Z,1014.59
2022-11-13T07:40:30.043Z,1014.6
2022-11-13T07:41:10.526Z,1014.56
2022-11-13T07:41:51.035Z,1014.58
2022-11-13T07:42:31.554Z,1014.59
2022-11-13T07:43:12.037Z,1014.58
2022-11-13T07:43:52.525Z,1014.58
2022-11-13T07:44:53.322Z,1014.57
2022-11-13T07:45:13.525Z,1014.55
2022-11-13T07:45:54.111Z,1014.55
2022-11-13T07:46:34.545Z,1014.55
2022-11-13T07:47:15.035Z,1014.52
2022-11-13T07:47:55.513Z,1014.49
2022-11-13T07:48:36.215Z,1014.5
2022-11-13T07:49:16.560Z,1014.53
2022-11-13T07:50:03.584Z,1014.53
2022-11-13T07:50:37.556Z,1014.52
2022-11-13T07:51:18.082Z,1014.55
2022-11-13T07:51:58.580Z,1014.49
2022-11-13T07:52:39.065Z,1014.5
2022-11-13T07:53:19.564Z,1014.54
2022-11-13T07:53:59.968Z,1014.53
2022-11-13T07:54:40.457Z,1014.5
2022-11-13T07:55:20.993Z,1014.55
2022-11-13T07:56:01.506Z,1014.54
2022-11-13T07:56:41.963Z,1014.53
2022-11-13T07:57:22.478Z,1014.54
2022-11-13T07:58:02.920Z,1014.57
2022-11-13T07:58:43.412Z,1014.48
2022-11-13T07:59:23.869Z,1014.55
2022-11-13T08:00:04.429Z,1014.55
2022-11-13T08:00:44.943Z,1014.48
2022-11-13T08:01:25.423Z,1014.48
2022-11-13T08:02:05.897Z,1014.46
2022-11-13T08:02:46.366Z,1014.48
2022-11-13T08:03:26.885Z,1014.52
2022-11-13T08:04:07.483Z,1014.48
2022-11-13T08:04:47.847Z,1014.43
2022-11-13T08:05:28.309Z,1014.47
2022-11-13T08:06:08.789Z,1014.49
2022-11-13T08:06:49.296Z,1014.49
2022-11-13T08:07:29.746Z,1014.46
2022-11-13T08:08:10.250Z,1014.47
2022-11-13T08:08:50.787Z,1014.47
2022-11-13T08:09:31.305Z,1014.47
2022-11-13T08:10:11.792Z,1014.5
2022-11-13T08:10:52.267Z,1014.5
2022-11-13T08:12:13.252Z,1014.48
2022-11-13T08:12:53.748Z,1014.46
2022-11-13T08:15:21.852Z,1014.46
2022-11-13T08:16:02.257Z,1014.47
2022-11-13T08:16:42.731Z,1014.48
2022-11-13T08:17:23.213Z,1014.48
2022-11-13T08:18:03.683Z,1014.51
2022-11-13T08:18:44.150Z,1014.5
2022-11-13T08:19:24.718Z,1014.53
2022-11-13T08:20:45.560Z,1014.47
2022-11-13T08:21:26.012Z,1014.52
2022-11-13T08:22:06.499Z,1014.52
2022-11-13T08:22:46.986Z,1014.51
2022-11-13T08:23:27.447Z,1014.52
2022-11-13T08:24:07.914Z,1014.51
2022-11-13T08:24:48.385Z,1014.53
2022-11-13T08:25:28.864Z,1014.49
2022-11-13T08:26:09.331Z,1014.54
2022-11-13T08:26:49.825Z,1014.48
2022-11-13T08:27:30.350Z,1014.46
2022-11-13T08:28:13.090Z,1014.41
2022-11-13T08:28:51.312Z,1014.42
2022-11-13T08:29:31.786Z,1014.44
2022-11-13T08:30:12.272Z,1014.4
2022-11-13T08:30:52.777Z,1014.45
2022-11-13T08:31:33.306Z,1014.48
2022-11-13T08:32:13.764Z,1014.42
2022-11-13T08:32:54.239Z,1014.41
2022-11-13T08:33:34.708Z,1014.37
2022-11-13T08:34:15.162Z,1014.4
2022-11-13T08:34:55.816Z,1014.37
2022-11-13T08:35:36.127Z,1014.36
2022-11-13T08:36:16.618Z,1014.36
2022-11-13T08:36:57.150Z,1014.37
2022-11-13T08:37:37.628Z,1014.34
2022-11-13T08:38:18.145Z,1014.36
2022-11-13T08:38:58.585Z,1014.3
2022-11-13T08:39:39.093Z,1014.28
2022-11-13T08:40:19.605Z,1014.32
2022-11-13T08:41:03.192Z,1014.27
2022-11-13T08:41:40.638Z,1014.31
2022-11-13T08:42:21.128Z,1014.31
2022-11-13T08:43:01.585Z,1014.26
2022-11-13T08:43:42.112Z,1014.26
2022-11-13T08:44:22.622Z,1014.23
2022-11-13T08:45:03.133Z,1014.22
2022-11-13T08:45:43.521Z,1014.24
2022-11-13T08:46:24.011Z,1014.2
2022-11-13T08:47:04.513Z,1014.18
2022-11-13T08:47:45.037Z,1014.2
2022-11-13T08:48:25.764Z,1014.16
2022-11-13T08:49:06.115Z,1014.18
2022-11-13T08:49:46.583Z,1014.19
2022-11-13T08:50:27.197Z,1014.18
2022-11-13T08:51:07.605Z,1014.19
2022-11-13T08:51:48.078Z,1014.19
2022-11-13T08:52:28.554Z,1014.19
2022-11-13T08:53:09.026Z,1014.17
2022-11-13T08:53:49.462Z,1014.17
2022-11-13T08:54:29.932Z,1014.18
2022-11-13T08:55:10.450Z,1014.17
2022-11-13T08:55:50.919Z,1014.19
2022-11-13T08:56:31.446Z,1014.19
2022-11-13T08:57:11.886Z,1014.2
2022-11-13T08:57:52.387Z,1014.13
2022-11-13T08:58:33.023Z,1014.15
2022-11-13T08:59:13.387Z,1014.1
2022-11-13T08:59:53.899Z,1014.12
2022-11-13T09:00:34.346Z,1014.14
2022-11-13T09:01:55.299Z,1014.11
2022-11-13T09:02:35.795Z,1014.13
2022-11-13T09:03:16.275Z,1014.13
2022-11-13T09:03:56.852Z,1014.12
2022-11-13T09:04:37.232Z,1014.12
2022-11-13T09:05:17.729Z,1014.11
2022-11-13T09:05:58.306Z,1014.09
2022-11-13T09:06:38.732Z,1014.06
2022-11-13T09:07:22.085Z,1014.05
2022-11-13T09:07:59.642Z,1014.04
2022-11-13T09:08:40.137Z,1014.07
2022-11-13T09:09:20.612Z,1014.02
2022-11-13T09:10:01.126Z,1014.08
2022-11-13T09:10:41.636Z,1014.06
2022-11-13T09:11:22.108Z,1014.04
2022-11-13T09:12:02.575Z,1014.06
2022-11-13T09:12:43.076Z,1013.99
2022-11-13T09:13:23.573Z,1014
2022-11-13T09:14:04.027Z,1014.04
2022-11-13T09:14:44.505Z,1014.04
2022-11-13T09:15:24.926Z,1014.04
2022-11-13T09:16:05.439Z,1014.05
2022-11-13T09:16:45.907Z,1014.1
2022-11-13T09:17:26.389Z,1014.06
2022-11-13T09:18:06.914Z,1014.06
2022-11-13T09:19:27.917Z,1013.99
2022-11-13T09:20:11.275Z,1013.98
2022-11-13T09:20:48.873Z,1013.97
2022-11-13T09:21:29.473Z,1013.96
2022-11-13T09:22:09.859Z,1013.97
2022-11-13T09:22:50.377Z,1013.95
2022-11-13T09:23:30.938Z,1014
2022-11-13T09:24:11.394Z,1013.94
2022-11-13T09:24:51.931Z,1013.96
2022-11-13T09:25:36.949Z,1013.97
2022-11-13T09:26:12.864Z,1013.96
2022-11-13T09:26:53.388Z,1013.97
2022-11-13T09:27:33.821Z,1013.92
2022-11-13T09:28:14.332Z,1013.92
2022-11-13T09:29:35.353Z,1013.88
2022-11-13T09:30:15.803Z,1013.91
2022-11-13T09:30:56.326Z,1013.92
2022-11-13T09:31:36.807Z,1013.88
2022-11-13T09:32:17.256Z,1013.9
2022-11-13T09:32:57.744Z,1013.89
2022-11-13T09:33:38.250Z,1013.9
2022-11-13T09:34:18.740Z,1013.9
2022-11-13T09:34:59.199Z,1013.89
2022-11-13T09:35:39.676Z,1013.92
2022-11-13T09:36:20.179Z,1013.92
2022-11-13T09:37:00.755Z,1013.97
2022-11-13T09:37:41.158Z,1013.99
2022-11-13T09:38:21.617Z,1013.94
2022-11-13T09:39:02.164Z,1013.95
2022-11-13T09:39:42.591Z,1013.94
2022-11-13T09:40:23.134Z,1013.92
2022-11-13T09:41:03.613Z,1013.93
2022-11-13T09:41:44.121Z,1013.93
2022-11-13T09:42:24.605Z,1013.89